WEATHER DATA

YESTERDAY
Time Temp. Dewp. Hum. Wind dir Wind speed Wind gust Bar. 1h Prec. 24h Prec.
00:05 10.3 8.7 90 3 0.8 1.4 1009 0.0000 0.0000
00:16 10.3 8.9 91 358 1.4 1.7 1008.9 0.0000 0.0000
00:26 10.2 9 92 354 1.4 2.2 1008.9 0.0000 0.0000
00:36 10.2 9 92 0 1.1 1.7 1008.9 0.0000 0.0000
00:45 10.2 9 92 1 0.8 1.4 1009 0.0000 0.0000
00:56 10 9.1 94 21 0.8 1.7 1008.9 0.0000 0.0000
01:06 9.8 8.9 94 55 0.8 1.4 1008.7 0.0000 0.0000
01:16 9.7 8.6 93 358 0.8 1.4 1008.8 0.0000 0.0000
01:26 10.2 9.3 94 8 0.8 1.4 1008.9 0.0000 0.0000
01:36 10.4 9.5 94 13 0.8 1.4 1009 0.0000 0.0000
01:46 10.3 9.4 94 4 0.8 1.4 1009 0.0000 0.0000
01:56 10.2 9.3 94 6 1.1 1.4 1008.9 0.0000 0.0000
02:07 10.2 9.3 94 0 1.1 1.7 1008.9 0.0000 0.0000
02:17 10.2 9.3 94 4 1.4 2.2 1008.9 0.0000 0.0000
02:27 10.1 9.2 94 355 1.4 2.2 1008.9 0.0000 0.0000
02:36 10.1 9.2 94 8 1.1 1.7 1008.9 0.0000 0.0000
02:47 10.2 9.3 94 9 1.1 1.7 1008.8 0.0000 0.0000
02:57 10 9.1 94 21 0.8 1.4 1008.8 0.0000 0.0000
03:07 9.9 9 94 339 0.8 1.1 1008.9 0.0000 0.0000
03:17 9.8 8.9 94 7 1.4 2.2 1008.9 0.0000 0.0000
03:27 9.8 8.9 94 4 1.4 2.2 1008.8 0.0000 0.0000
03:38 9.9 9 94 358 1.4 2.2 1008.8 0.0000 0.0000
03:47 10 9.1 94 356 1.4 2.2 1008.6 0.0000 0.0000
03:57 10 9.1 94 8 1.7 2.2 1008.5 0.0000 0.0000
04:08 10 9.1 94 354 1.4 2.2 1008.6 0.0000 0.0000
04:18 9.9 9 94 5 1.4 2.2 1008.6 0.0000 0.0000
04:28 9.8 8.9 94 3 1.1 1.7 1008.6 0.0000 0.0000
04:38 9.8 8.9 94 3 1.4 1.7 1008.6 0.0000 0.0000
04:48 9.8 8.9 94 6 1.4 2.2 1008.6 0.0000 0.0000
04:58 9.7 8.8 94 3 1.4 2.2 1008.6 0.0000 0.0000
05:08 9.6 8.7 94 355 1.1 1.7 1008.5 0.0000 0.0000
05:19 9.2 8.3 94 4 0.8 1.4 1008.4 0.0000 0.0000
05:28 9 8.1 94 0 1.1 1.7 1008.5 0.0000 0.0000
05:38 9.1 8.2 94 357 1.1 2.2 1008.3 0.0000 0.0000
05:49 9 8.1 94 2 0.8 1.1 1008.5 0.0000 0.0000
05:59 8.9 8 94 1 0.8 1.4 1008.6 0.0000 0.0000
06:09 8.8 7.9 94 356 0.3 1.1 1008.7 0.0000 0.0000
06:18 8.7 7.8 94 1 0.8 1.7 1008.7 0.0000 0.0000
06:29 8.7 7.8 94 7 0.8 1.4 1008.9 0.0000 0.0000
06:39 8.9 8 94 8 1.4 2.2 1008.9 0.0000 0.0000
06:49 9.3 8.4 94 358 1.1 1.7 1008.9 0.0000 0.0000
06:59 9.6 8.7 94 358 1.1 1.7 1008.9 0.0000 0.0000
07:09 9.9 9 94 355 1.1 1.7 1008.9 0.0000 0.0000
07:19 10.1 9.2 94 355 1.1 1.7 1008.9 0.0000 0.0000
07:29 10.3 9.4 94 2 1.1 1.7 1008.9 0.0000 0.0000
07:40 10.5 9.6 94 356 1.4 2.5 1008.8 0.0000 0.0000
07:50 11 10.1 94 2 1.7 2.5 1008.8 0.0000 0.0000
07:59 11.4 10.5 94 356 1.7 2.8 1008.7 0.0000 0.0000
08:10 11.9 11 94 4 2.2 3.6 1008.7 0.0000 0.0000
08:20 12.4 11.5 94 3 2.5 3.9 1008.7 0.0000 0.0000
08:30 12.6 11.5 93 3 2.5 3.6 1008.6 0.0000 0.0000
08:40 12.6 11.7 94 2 2.5 3.3 1008.6 0.0000 0.0000
08:50 12.5 11.6 94 3 2.5 3.9 1008.6 0.0000 0.0000
09:00 12.6 11.7 94 2 2.2 3.6 1008.6 0.0000 0.0000
09:10 12.7 11.4 92 2 2.5 5 1008.7 0.0000 0.0000
09:21 13 11.9 93 3 2.8 6.4 1008.8 0.0000 0.0000
09:30 13.3 12.2 93 0 2.2 3.9 1008.7 0.0000 0.0000
09:40 13.7 12.1 90 15 1.7 4.7 1008.7 0.0000 0.0000
09:51 13.9 12.1 89 11 1.7 3.9 1008.7 0.0000 0.0000
10:01 13.7 11.9 89 8 1.4 2.8 1008.5 0.0000 0.0000
10:11 13.8 12 89 3 2.2 4.7 1008.4 0.0000 0.0000
10:20 14.1 12.1 88 5 2.5 4.4 1008.2 0.0000 0.0000
10:31 14.4 12.6 89 6 2.2 3.6 1008.2 0.0000 0.0000
10:41 14.4 12.6 89 5 2.5 5 1008.4 0.0000 0.0000
10:51 14.3 12.7 90 9 2.5 5 1008.6 0.0000 0.0000
11:01 14.2 12.2 88 14 1.4 2.5 1008.7 0.0000 0.0000
11:11 14.1 12.1 88 4 1.7 3.6 1008.7 0.0000 0.0000
11:21 14.2 12.4 89 10 1.7 3.9 1008.8 0.0000 0.0000
11:31 14.4 12.6 89 6 1.7 3.6 1008.8 0.0000 0.0000
11:42 14.7 13.1 90 5 2.5 4.4 1008.7 0.0000 0.0000
11:52 14.9 13.3 90 7 2.5 3.9 1008.8 0.0000 0.0000
12:02 15 13.2 89 1 2.2 3.9 1008.8 0.0000 0.0000
12:12 15.1 13.1 88 12 1.4 2.5 1008.8 0.0000 0.0000
12:22 15.1 13 87 12 1.4 2.5 1008.9 0.0000 0.0000
12:32 14.9 12.9 88 12 1.4 3.3 1008.7 0.0000 0.0000
12:42 15 13 88 5 1.7 3.6 1008.5 0.0000 0.0000
12:51 15.2 13.4 89 11 1.7 3.6 1008.5 0.0000 0.0000
13:03 15.3 13.7 90 3 2.5 3.6 1008.4 0.1010 0.1000
13:12 15.1 13.5 90 12 1.4 3.6 1008.3 0.1010 0.1000
13:22 15 13.5 91 14 1.4 2.2 1008.1 0.1010 0.1000
13:32 15.1 13.6 91 13 1.4 2.2 1007.9 0.1010 0.1000
13:43 15.3 13.8 91 13 1.4 2.2 1007.7 0.1010 0.1000
13:53 15.5 14 91 15 1.4 2.2 1007.7 0.1010 0.1000
14:02 15.8 14.3 91 14 1.4 2.2 1007.9 0.0000 0.1000
14:13 15.9 13.9 88 10 1.4 2.2 1008.2 0.0000 0.1000
14:23 15.6 13.6 88 11 1.4 2.5 1008.3 0.0000 0.1000
14:33 15.2 13.4 89 11 1.4 2.2 1008.4 0.0000 0.1000
14:43 15.1 13.5 90 11 1.4 2.2 1008.4 0.0000 0.1000
14:53 15 13.7 92 13 1.4 2.2 1008.6 0.1010 0.2000
15:02 14.9 13.6 92 11 1.4 2.2 1008.7 0.3030 0.4000
15:12 14.9 13.8 93 12 1.4 2.2 1008.8 0.4040 0.5000
15:23 14.8 13.7 93 11 1.4 2.2 1008.8 0.6060 0.7000
15:33 14.7 13.7 94 13 1.4 2.2 1008.8 1.0100 1.1000
15:39 14.7 13.7 94 12 1.4 2.2 1008.8 1.1110 1.2000
15:49 14.6 13.6 94 12 1.4 2.2 1008.8 1.1110 1.3000
15:59 14.3 13.2 93 11 1.4 2.2 1008.7 1.0100 1.4000
16:10 13.8 12 89 12 1.4 2.2 1008.8 0.9090 1.4000
16:20 13.6 11.8 89 10 1.4 2.2 1008.8 0.7070 1.4000
16:29 13.4 12 91 14 1.4 2.2 1008.7 0.4040 1.5000
16:40 13.4 12.1 92 9 1.4 1.7 1008.8 0.3030 1.5000
16:50 13.4 12.3 93 11 1.4 1.7 1008.9 0.4040 1.7000
17:00 13.2 11.9 92 10 1.4 2.2 1009.2 0.4040 1.8000
17:10 13.2 11.9 92 10 1.4 2.2 1009.1 0.4040 1.8000
17:20 13.1 12 93 15 1.4 2.2 1009.1 0.6060 2.0000
17:30 13 12.1 94 14 1.4 2.2 1009.1 0.5050 2.0000
17:40 12.8 11.9 94 15 1.4 2.2 1008.9 0.4040 2.0000
17:51 12.7 11.8 94 355 1.1 1.7 1008.6 0.3030 2.0000
18:01 12.8 11.9 94 356 1.1 1.7 1008.5 0.2020 2.0000
18:09 12.9 12 94 353 1.1 1.7 1008.5 0.1010 2.0000
18:20 13.1 12.2 94 354 1.1 1.7 1008.5 0.0000 2.0000
18:31 13.4 12.5 94 355 1.1 1.7 1008.6 0.0000 2.0000
18:41 13.6 12.7 94 355 1.1 1.7 1008.7 0.0000 2.0000
18:51 13.7 12.8 94 356 1.1 1.7 1008.6 0.0000 2.0000
19:01 13.7 12.8 94 356 1.1 1.7 1008.6 0.0000 2.0000
19:11 13.6 12.7 94 355 1.1 1.7 1008.5 0.1010 2.1000
19:21 13.5 12.6 94 356 1.1 1.7 1008.7 0.1010 2.1000
19:31 13.2 12.1 93 355 1.1 1.7 1008.9 0.1010 2.1000
19:36 13 11.7 92 356 1.1 1.7 1009 0.1010 2.1000
19:47 12.7 11.6 93 356 1.1 1.7 1009.1 0.1010 2.1000
19:57 12.6 11.7 94 355 1.1 1.7 1008.9 0.1010 2.1000
20:06 12.5 11.6 94 357 1.1 1.7 1009.1 0.0000 2.1000
20:17 12.4 11.5 94 357 1.1 1.7 1009.3 0.0000 2.1000
20:27 12.3 11.4 94 357 1.1 1.7 1009.4 0.0000 2.1000
20:37 12.2 11.3 94 357 1.1 1.7 1009.5 0.0000 2.1000
20:47 12 11.1 94 357 1.1 1.7 1009.8 0.0000 2.1000
20:58 11.9 11 94 358 1.1 1.7 1009.9 0.0000 2.1000
21:07 11.8 10.9 94 353 1.1 1.7 1009.9 0.0000 2.1000
21:17 11.8 10.9 94 356 1.1 1.7 1010 0.0000 2.1000
21:28 11.7 10.8 94 355 1.1 1.7 1010.2 0.0000 2.1000
21:38 11.7 10.8 94 356 1.1 1.7 1010.2 0.0000 2.1000
21:48 11.6 10.7 94 355 1.1 1.7 1010.4 0.0000 2.1000
21:57 11.6 10.7 94 356 1.1 1.7 1010.4 0.0000 2.1000
22:08 11.5 10.6 94 355 1.1 1.7 1010.6 0.0000 2.1000
22:18 11.4 10.5 94 355 1.1 1.7 1010.6 0.0000 2.1000
22:28 11.3 10.4 94 356 1.1 1.7 1010.5 0.0000 2.1000
22:38 11.2 10.3 94 354 1.1 1.7 1010.5 0.0000 2.1000
22:48 11.1 10.2 94 355 1.1 1.7 1010.6 0.0000 2.1000
22:58 11 10.1 94 355 1.1 1.7 1010.5 0.0000 2.1000
23:08 11 10.1 94 355 1.1 1.7 1010.5 0.0000 2.1000
23:19 11 10.1 94 356 1.1 1.7 1010.5 0.0000 2.1000
23:29 11 10.1 94 355 1.1 1.7 1010.5 0.0000 2.1000
23:38 11 10.1 94 354 1.1 1.7 1010.5 0.0000 2.1000
23:49 11 10.1 94 355 1.1 1.7 1010.6 0.0000 2.1000

DAY STATISTIC

2021-05-11
TEMPERATURE
AVERAGE
12.2
HIGH
15.9
14:13
LOW
8.7
06:18
PRESSURE
AVERAGE
1008.9
HIGH
1010.6
22:08
LOW
1007.7
13:43
DEWPOINT
AVERAGE
11.1
HIGH
14.3
14:02
LOW
7.8
06:18
HUMIDITY
AVERAGE
93
HIGH
94
00:56
LOW
87
12:22
WIND SPEED
AVERAGE
1.4
HIGH
2.8
09:21
WIND GUST
AVERAGE
2.3
HIGH
6.4
09:21
WIND DIRECTION
PREVAILING
N
99.3%
N
99.3
NE
0.7
E
0.0
SE
0.0
S
0.0
SW
0.0
W
0.0
NW
0.0
PRECIPITATION
RAIN HOUR
1.1
RAIN DAY
2.1
TEMPERATURE (°C)
LOW
8.7
HIGH
15.9
AVERAGE
12.2
PRESSURE (hpa)
LOW
1007.7
HIGH
1010.6
AVERAGE
1008.9
DEVICE